Česky Dansk Deutsch English Español Suomi Français Magyar Italiano Nederlands norsk Polski Português svenska Türkçe

 

Het Weer

Abakan (Rusland)

16:00, 5 augustus 2016 (GMT)

NWNNE
WE
SWSSE
Home            
Abakan Novokuznetsk Kemerovo Nizhneudinsk Barnaul Enisejsk Novosibirsk Bratsk / Irkutsk Irkutsk Ust'Ordynskij Ulan-Ude Kirensk Urum-Qi / Diwopu Omsk Nizhnevartovsk Hami Horinsk Ulan-Bator Yining Karaganda Surgut Astana Chita

Om een weerknop op uw website of weblog te plaatsen, copieer onderstaande code en plak die in uw pagina. In het eerste vakje staat HTML-code, in het tweede vakje UBB-code.


Add to Google

Details

Wind speed:2 bf, 3.9 kn, 2 m/s, 4.5 miles/h, 7.2 km/h
Wind direction:N, 350°
Visibility:Greater than 10000 m, 10 km, 32800 ft, 6.2 miles
Clouds:CAVOC
Temperature:18°C, 64°F
Dew-point:13°C, 55°F
Atmospheric pressure:1016 hPa, 762.1 mmHg, 30.00 inHg, 1.003 atm
Relative humidity:72.6 %
METAR:UNAA 051600Z 35002MPS CAVOK 18/13 Q1016 R02/090065 NOSIG RMK QFE739

Snelkoppelingen

Actuele weersinformatie van de hele wereld. Voeg locaties toe met het plus (+) symbool. Deze snelkoppelingen kunnen worden toegevoegd aan Google.

Lid van de Technetium groep

website free tracking
StatCounter NetStat W3C Validator

18-08-2019 05:57:32
astro.technetium.be money.technetium.be phote.technetium.be tafeltennistafel.technetium.be www.ligfiets.net